createdAt,value
2023-01-30T00:00:16.100Z,29.43
2023-01-30T00:02:43.460Z,31.73
2023-01-30T00:05:10.615Z,33.27
2023-01-30T00:07:37.871Z,30.57
2023-01-30T00:10:05.214Z,31.63
2023-01-30T00:12:32.355Z,31.40
2023-01-30T00:14:59.494Z,31.27
2023-01-30T00:17:26.635Z,29.30
2023-01-30T00:19:53.783Z,32.87
2023-01-30T00:22:20.923Z,32.23
2023-01-30T00:24:48.128Z,30.67
2023-01-30T00:27:15.293Z,30.67
2023-01-30T00:29:44.279Z,29.73
2023-01-30T00:32:12.847Z,31.17
2023-01-30T00:34:40.000Z,28.00
2023-01-30T00:37:08.592Z,28.67
2023-01-30T00:39:35.902Z,27.80
2023-01-30T00:42:21.725Z,31.03
2023-01-30T00:45:07.898Z,28.43
2023-01-30T00:47:35.082Z,28.53
2023-01-30T00:50:02.249Z,28.33
2023-01-30T00:52:29.391Z,27.30
2023-01-30T00:54:56.598Z,24.57
2023-01-30T00:57:23.753Z,29.73
2023-01-30T00:59:51.121Z,28.30
2023-01-30T01:02:18.298Z,29.30
2023-01-30T01:04:45.485Z,27.63
2023-01-30T01:07:13.479Z,26.10
2023-01-30T01:09:40.646Z,29.30
2023-01-30T01:12:08.163Z,28.13
2023-01-30T01:14:35.331Z,27.63
2023-01-30T01:17:02.630Z,29.63
2023-01-30T01:19:29.852Z,31.73
2023-01-30T01:21:56.981Z,27.43
2023-01-30T01:24:24.125Z,25.97
2023-01-30T01:26:51.241Z,27.50
2023-01-30T01:29:18.384Z,32.60
2023-01-30T01:31:45.878Z,32.03
2023-01-30T01:34:13.273Z,28.93
2023-01-30T01:36:55.842Z,29.43
2023-01-30T01:39:23.192Z,29.60
2023-01-30T01:41:50.333Z,29.47
2023-01-30T01:44:17.698Z,33.10
2023-01-30T01:46:52.371Z,30.50
2023-01-30T01:49:24.626Z,32.07
2023-01-30T01:51:59.453Z,28.53
2023-01-30T01:54:34.794Z,29.77
2023-01-30T01:57:04.584Z,31.13
2023-01-30T01:59:35.640Z,31.23
2023-01-30T02:02:06.823Z,31.60
2023-01-30T02:04:53.672Z,32.00
2023-01-30T02:07:22.395Z,31.83
2023-01-30T02:09:50.774Z,35.70
2023-01-30T02:12:17.945Z,31.67
2023-01-30T02:14:45.505Z,30.00
2023-01-30T02:17:12.720Z,30.03
2023-01-30T02:19:47.825Z,29.33
2023-01-30T02:22:33.900Z,31.87
2023-01-30T02:25:01.010Z,29.57
2023-01-30T02:27:43.217Z,31.23
2023-01-30T02:30:29.139Z,32.70
2023-01-30T02:33:14.973Z,30.80
2023-01-30T02:35:56.899Z,32.40
2023-01-30T02:38:45.961Z,32.13
2023-01-30T02:41:31.881Z,28.97
2023-01-30T02:44:06.324Z,33.17
2023-01-30T02:46:39.295Z,31.87
2023-01-30T02:49:15.769Z,33.37
2023-01-30T02:51:43.853Z,36.43
2023-01-30T02:54:14.254Z,31.07
2023-01-30T02:56:54.503Z,31.80
2023-01-30T02:59:42.667Z,33.23
2023-01-30T03:02:12.594Z,34.70
2023-01-30T03:04:39.715Z,31.67
2023-01-30T03:07:25.354Z,33.40
2023-01-30T03:09:52.517Z,31.80
2023-01-30T03:12:19.744Z,35.30
2023-01-30T03:14:49.129Z,33.80
2023-01-30T03:17:17.370Z,32.03
2023-01-30T03:19:44.796Z,30.10
2023-01-30T03:22:12.250Z,29.57
2023-01-30T03:24:39.425Z,34.97
2023-01-30T03:27:08.410Z,33.53
2023-01-30T03:29:35.615Z,29.47
2023-01-30T03:32:02.972Z,29.00
2023-01-30T03:34:30.159Z,29.03
2023-01-30T03:36:57.545Z,29.93
2023-01-30T03:39:25.699Z,28.10
2023-01-30T03:41:53.439Z,33.00
2023-01-30T03:44:20.710Z,30.93
2023-01-30T03:46:47.846Z,29.30
2023-01-30T03:49:15.061Z,27.57
2023-01-30T03:51:42.208Z,28.47
2023-01-30T03:54:09.323Z,27.03
2023-01-30T03:56:36.591Z,30.07
2023-01-30T03:59:03.706Z,27.63
2023-01-30T04:01:30.966Z,23.67
2023-01-30T04:03:58.139Z,28.03
2023-01-30T04:06:25.262Z,28.93
2023-01-30T04:08:55.158Z,23.97
2023-01-30T04:11:22.748Z,25.67
2023-01-30T04:13:49.863Z,24.90
2023-01-30T04:16:21.952Z,24.67
2023-01-30T04:18:49.108Z,25.57
2023-01-30T04:21:16.389Z,22.53
2023-01-30T04:23:43.503Z,20.87
2023-01-30T04:26:11.242Z,21.97
2023-01-30T04:28:38.511Z,24.97
2023-01-30T04:31:06.175Z,21.37
2023-01-30T04:33:36.976Z,19.60
2023-01-30T04:36:05.035Z,20.80
2023-01-30T04:38:33.458Z,22.33
2023-01-30T04:41:00.937Z,21.27
2023-01-30T04:43:28.860Z,22.60
2023-01-30T04:45:56.021Z,22.40
2023-01-30T04:48:24.577Z,19.73
2023-01-30T04:50:52.419Z,21.00
2023-01-30T04:53:20.639Z,22.13
2023-01-30T04:55:48.219Z,18.77
2023-01-30T04:58:15.823Z,19.63
2023-01-30T05:00:43.218Z,22.20
2023-01-30T05:03:10.359Z,22.33
2023-01-30T05:05:37.524Z,20.53
2023-01-30T05:08:04.901Z,21.07
2023-01-30T05:10:32.175Z,20.80
2023-01-30T05:13:02.894Z,22.00
2023-01-30T05:15:30.041Z,22.20
2023-01-30T05:17:57.188Z,24.20
2023-01-30T05:20:24.478Z,22.63
2023-01-30T05:22:51.594Z,23.40
2023-01-30T05:25:18.977Z,23.27
2023-01-30T05:27:46.336Z,22.80
2023-01-30T05:30:13.532Z,21.93
2023-01-30T05:32:40.719Z,19.77
2023-01-30T05:35:08.313Z,22.83
2023-01-30T05:37:35.511Z,24.07
2023-01-30T05:40:02.643Z,23.93
2023-01-30T05:42:29.776Z,21.53
2023-01-30T05:44:56.929Z,24.03
2023-01-30T05:47:24.037Z,22.73
2023-01-30T05:49:51.176Z,24.60
2023-01-30T05:52:18.294Z,22.27
2023-01-30T05:54:45.443Z,21.20
2023-01-30T05:57:13.493Z,17.20
2023-01-30T05:59:40.631Z,22.70
2023-01-30T06:02:08.291Z,25.37
2023-01-30T06:04:36.360Z,22.73
2023-01-30T06:07:03.504Z,25.97
2023-01-30T06:09:30.678Z,25.77
2023-01-30T06:11:57.860Z,24.83
2023-01-30T06:14:25.028Z,23.10
2023-01-30T06:16:52.246Z,25.73
2023-01-30T06:19:19.460Z,21.40
2023-01-30T06:21:46.596Z,24.23
2023-01-30T06:24:13.749Z,24.77
2023-01-30T06:26:41.006Z,27.80
2023-01-30T06:29:08.160Z,24.13
2023-01-30T06:31:35.347Z,22.07
2023-01-30T06:34:02.507Z,22.93
2023-01-30T06:36:29.648Z,26.07
2023-01-30T06:38:56.776Z,23.83
2023-01-30T06:41:23.975Z,23.63
2023-01-30T06:43:51.153Z,26.07
2023-01-30T06:46:18.431Z,24.63
2023-01-30T06:48:45.619Z,22.43
2023-01-30T06:51:12.867Z,24.70
2023-01-30T06:53:40.051Z,27.53
2023-01-30T06:56:07.377Z,30.20
2023-01-30T06:58:34.487Z,27.10
2023-01-30T07:01:02.391Z,22.87
2023-01-30T07:03:29.617Z,27.33
2023-01-30T07:05:56.797Z,22.23
2023-01-30T07:08:24.448Z,27.20
2023-01-30T07:10:51.717Z,26.27
2023-01-30T07:13:18.911Z,24.00
2023-01-30T07:15:46.728Z,29.63
2023-01-30T07:18:13.881Z,21.17
2023-01-30T07:20:42.270Z,25.73
2023-01-30T07:23:09.443Z,25.37
2023-01-30T07:25:36.599Z,27.13
2023-01-30T07:28:03.867Z,28.23
2023-01-30T07:30:33.213Z,26.73
2023-01-30T07:33:00.992Z,28.43
2023-01-30T07:35:30.363Z,28.33
2023-01-30T07:37:57.573Z,21.93
2023-01-30T07:40:25.532Z,27.57
2023-01-30T07:43:02.148Z,30.53
2023-01-30T07:45:30.922Z,30.40
2023-01-30T07:47:58.083Z,27.87
2023-01-30T07:50:25.299Z,28.37
2023-01-30T07:52:52.724Z,30.63
2023-01-30T07:55:20.196Z,30.33
2023-01-30T07:57:47.547Z,30.10
2023-01-30T08:00:15.320Z,32.30
2023-01-30T08:02:42.862Z,33.20
2023-01-30T08:05:10.163Z,31.70
2023-01-30T08:07:37.310Z,26.70
2023-01-30T08:10:04.653Z,26.97
2023-01-30T08:12:31.881Z,26.50
2023-01-30T08:14:59.024Z,26.33
2023-01-30T08:17:26.180Z,25.80
2023-01-30T08:19:53.313Z,25.73
2023-01-30T08:22:20.473Z,25.67
2023-01-30T08:24:47.605Z,27.00
2023-01-30T08:27:15.950Z,25.63
2023-01-30T08:29:43.093Z,26.87
2023-01-30T08:32:10.256Z,24.40
2023-01-30T08:34:37.475Z,30.47
2023-01-30T08:37:04.719Z,24.53
2023-01-30T08:39:31.929Z,23.43
2023-01-30T08:41:59.055Z,22.67
2023-01-30T08:44:26.179Z,20.97
2023-01-30T08:46:53.303Z,21.90
2023-01-30T08:49:20.455Z,19.40
2023-01-30T08:51:47.605Z,17.67
2023-01-30T08:54:14.793Z,22.37
2023-01-30T08:56:42.026Z,19.60
2023-01-30T08:59:09.204Z,19.50
2023-01-30T09:01:38.161Z,17.90
2023-01-30T09:04:05.483Z,18.37
2023-01-30T09:06:32.848Z,19.50
2023-01-30T09:09:00.780Z,18.53
2023-01-30T09:11:28.225Z,15.87
2023-01-30T09:13:55.416Z,16.17
2023-01-30T09:16:22.588Z,17.07
2023-01-30T09:18:49.798Z,13.70
2023-01-30T09:21:17.092Z,15.57
2023-01-30T09:23:44.437Z,13.10
2023-01-30T09:26:11.638Z,14.83
2023-01-30T09:28:39.555Z,13.33
2023-01-30T09:31:06.862Z,12.70
2023-01-30T09:33:34.154Z,14.37
2023-01-30T09:36:01.288Z,12.13
2023-01-30T09:38:28.448Z,11.77
2023-01-30T09:40:58.809Z,12.47
2023-01-30T09:43:37.899Z,12.40
2023-01-30T09:46:07.796Z,10.53
2023-01-30T09:48:44.579Z,10.67
2023-01-30T09:51:32.030Z,10.00
2023-01-30T09:54:11.763Z,10.37
2023-01-30T09:56:38.916Z,10.93
2023-01-30T09:59:06.979Z,9.50
2023-01-30T10:01:45.835Z,9.73
2023-01-30T10:04:21.881Z,10.67
2023-01-30T10:06:56.040Z,9.07
2023-01-30T10:09:52.379Z,10.93
2023-01-30T10:12:31.598Z,10.30
2023-01-30T10:15:04.872Z,9.27
2023-01-30T10:17:35.106Z,10.13
2023-01-30T10:20:02.238Z,10.17
2023-01-30T10:23:02.293Z,10.00
2023-01-30T10:25:34.960Z,9.30
2023-01-30T10:28:16.784Z,11.33
2023-01-30T10:30:45.733Z,8.70
2023-01-30T10:33:34.213Z,8.93
2023-01-30T10:36:05.240Z,9.87
2023-01-30T10:38:38.189Z,10.17
2023-01-30T10:41:11.192Z,9.77
2023-01-30T10:43:43.862Z,9.30
2023-01-30T10:46:11.005Z,9.53
2023-01-30T10:49:04.454Z,10.33
2023-01-30T10:51:39.515Z,8.27
2023-01-30T10:54:23.870Z,9.30
2023-01-30T10:56:53.765Z,12.90
2023-01-30T10:59:26.481Z,9.90
2023-01-30T11:02:03.176Z,9.67
2023-01-30T11:04:32.316Z,11.27
2023-01-30T11:07:00.901Z,8.30
2023-01-30T11:09:47.165Z,9.67
2023-01-30T11:12:14.629Z,9.80
2023-01-30T11:14:52.828Z,8.53
2023-01-30T11:17:21.273Z,8.70
2023-01-30T11:19:55.729Z,10.17
2023-01-30T11:22:25.934Z,10.10
2023-01-30T11:25:01.111Z,9.10
2023-01-30T11:27:33.279Z,8.67
2023-01-30T11:30:07.995Z,9.47
2023-01-30T11:32:35.276Z,9.17
2023-01-30T11:35:18.876Z,8.43
2023-01-30T11:37:46.628Z,8.53
2023-01-30T11:40:30.905Z,8.83
2023-01-30T11:43:05.796Z,8.57
2023-01-30T11:45:40.424Z,7.83
2023-01-30T11:48:28.711Z,7.50
2023-01-30T11:51:05.946Z,8.20
2023-01-30T11:53:33.072Z,8.03
2023-01-30T11:56:08.357Z,8.03
2023-01-30T11:58:37.350Z,7.23
2023-01-30T12:01:05.460Z,7.57
2023-01-30T12:03:34.516Z,8.57
2023-01-30T12:06:01.820Z,8.33
2023-01-30T12:08:41.721Z,7.87
2023-01-30T12:11:24.825Z,9.50
2023-01-30T12:13:52.682Z,7.97
2023-01-30T12:16:22.267Z,8.40
2023-01-30T12:18:58.242Z,7.60
2023-01-30T12:21:37.348Z,6.27
2023-01-30T12:24:19.088Z,8.07
2023-01-30T12:27:05.064Z,8.67
2023-01-30T12:29:34.920Z,8.33
2023-01-30T12:32:12.096Z,8.60
2023-01-30T12:34:39.484Z,8.97
2023-01-30T12:37:08.476Z,8.87
2023-01-30T12:39:50.961Z,7.23
2023-01-30T12:42:18.655Z,7.27
2023-01-30T12:45:06.436Z,8.13
2023-01-30T12:47:36.559Z,8.77
2023-01-30T12:50:03.673Z,8.80
2023-01-30T12:52:37.556Z,6.20
2023-01-30T12:55:07.398Z,8.37
2023-01-30T12:57:38.643Z,8.70
2023-01-30T13:00:25.386Z,8.97
2023-01-30T13:02:55.989Z,6.53
2023-01-30T13:05:29.096Z,7.50
2023-01-30T13:07:56.233Z,6.53
2023-01-30T13:10:26.109Z,7.47
2023-01-30T13:13:13.508Z,7.33
2023-01-30T13:15:50.265Z,6.90
2023-01-30T13:18:32.893Z,7.77
2023-01-30T13:21:14.586Z,7.33
2023-01-30T13:24:00.429Z,6.47
2023-01-30T13:26:34.876Z,7.33
2023-01-30T13:29:16.974Z,6.47
2023-01-30T13:31:50.121Z,5.13
2023-01-30T13:34:25.942Z,5.10
2023-01-30T13:36:59.149Z,7.20
2023-01-30T13:39:42.933Z,6.97
2023-01-30T13:42:25.816Z,7.93
2023-01-30T13:44:54.464Z,10.20
2023-01-30T13:47:32.587Z,9.20
2023-01-30T13:50:02.763Z,7.43
2023-01-30T13:52:31.795Z,7.30
2023-01-30T13:55:04.556Z,8.83
2023-01-30T13:58:04.072Z,8.27
2023-01-30T14:00:34.923Z,7.57
2023-01-30T14:03:04.838Z,9.97
2023-01-30T14:05:50.776Z,6.67
2023-01-30T14:08:40.885Z,7.20
2023-01-30T14:11:29.124Z,8.53
2023-01-30T14:14:00.130Z,7.13
2023-01-30T14:16:40.183Z,7.83
2023-01-30T14:19:22.578Z,9.77
2023-01-30T14:21:59.608Z,7.27
2023-01-30T14:24:27.586Z,7.97
2023-01-30T14:26:57.739Z,7.93
2023-01-30T14:29:42.730Z,9.97
2023-01-30T14:32:13.848Z,9.97
2023-01-30T14:34:43.128Z,5.80
2023-01-30T14:37:28.869Z,8.30
2023-01-30T14:39:57.026Z,8.03
2023-01-30T14:42:25.636Z,7.03
2023-01-30T14:45:00.114Z,5.70
2023-01-30T14:47:35.486Z,6.40
2023-01-30T14:50:20.260Z,7.90
2023-01-30T14:52:50.227Z,7.43
2023-01-30T14:55:19.879Z,7.43
2023-01-30T14:57:51.768Z,9.23
2023-01-30T15:00:20.898Z,9.20
2023-01-30T15:02:50.464Z,8.67
2023-01-30T15:05:26.065Z,11.00
2023-01-30T15:08:03.866Z,10.07
2023-01-30T15:10:31.033Z,9.70
2023-01-30T15:13:16.484Z,7.43
2023-01-30T15:15:59.252Z,8.43
2023-01-30T15:18:26.427Z,11.67
2023-01-30T15:20:56.579Z,10.03
2023-01-30T15:23:35.720Z,7.60
2023-01-30T15:26:14.851Z,7.60
2023-01-30T15:28:45.049Z,10.13
2023-01-30T15:31:19.019Z,8.47
2023-01-30T15:33:50.394Z,8.70
2023-01-30T15:36:23.899Z,8.27
2023-01-30T15:39:01.498Z,8.57
2023-01-30T15:41:30.267Z,9.03
2023-01-30T15:44:00.225Z,9.90
2023-01-30T15:46:27.388Z,11.23
2023-01-30T15:48:57.719Z,6.63
2023-01-30T15:51:29.420Z,11.07
2023-01-30T15:53:57.495Z,8.37
2023-01-30T15:56:26.759Z,8.23
2023-01-30T15:58:54.013Z,9.63
2023-01-30T16:01:21.991Z,11.43
2023-01-30T16:03:50.211Z,9.67
2023-01-30T16:06:22.116Z,11.17
2023-01-30T16:08:56.667Z,15.97
2023-01-30T16:11:33.957Z,9.63
2023-01-30T16:14:01.163Z,9.40
2023-01-30T16:16:28.564Z,10.53
2023-01-30T16:18:55.765Z,8.87
2023-01-30T16:21:24.015Z,8.77
2023-01-30T16:23:54.161Z,10.53
2023-01-30T16:26:24.404Z,10.87
2023-01-30T16:28:52.119Z,16.13
2023-01-30T16:31:19.799Z,11.50
2023-01-30T16:33:53.434Z,12.20
2023-01-30T16:36:20.578Z,10.23
2023-01-30T16:38:48.340Z,13.30
2023-01-30T16:41:34.111Z,12.13
2023-01-30T16:44:16.533Z,11.67
2023-01-30T16:46:48.211Z,10.27
2023-01-30T16:49:18.121Z,13.43
2023-01-30T16:51:45.633Z,9.30
2023-01-30T16:54:21.692Z,11.47
2023-01-30T16:56:50.709Z,10.07
2023-01-30T16:59:20.643Z,14.93
2023-01-30T17:01:48.125Z,11.90
2023-01-30T17:04:23.766Z,11.03
2023-01-30T17:06:56.104Z,12.53
2023-01-30T17:09:32.416Z,10.73
2023-01-30T17:11:59.565Z,16.23
2023-01-30T17:14:31.282Z,12.90
2023-01-30T17:17:01.634Z,11.17
2023-01-30T17:19:29.107Z,10.93
2023-01-30T17:21:57.250Z,11.03
2023-01-30T17:24:25.450Z,14.17
2023-01-30T17:27:00.322Z,14.27
2023-01-30T17:29:43.875Z,11.83
2023-01-30T17:32:12.384Z,10.87
2023-01-30T17:34:41.204Z,8.93
2023-01-30T17:37:15.386Z,7.80
2023-01-30T17:39:42.587Z,12.63
2023-01-30T17:42:13.549Z,12.33
2023-01-30T17:44:41.027Z,10.67
2023-01-30T17:47:10.539Z,11.90
2023-01-30T17:49:37.698Z,11.40
2023-01-30T17:52:04.985Z,11.00
2023-01-30T17:54:32.270Z,12.73
2023-01-30T17:57:03.533Z,12.37
2023-01-30T17:59:31.633Z,14.13
2023-01-30T18:01:59.476Z,15.70
2023-01-30T18:04:26.663Z,12.80
2023-01-30T18:06:55.534Z,10.53
2023-01-30T18:09:23.668Z,11.47
2023-01-30T18:11:51.078Z,14.13
2023-01-30T18:14:18.264Z,17.87
2023-01-30T18:16:45.636Z,12.57
2023-01-30T18:19:13.828Z,13.00
2023-01-30T18:21:43.407Z,15.60
2023-01-30T18:24:10.568Z,12.60
2023-01-30T18:26:37.836Z,15.87
2023-01-30T18:29:05.097Z,13.40
2023-01-30T18:31:32.352Z,14.43
2023-01-30T18:33:59.567Z,14.37
2023-01-30T18:36:26.687Z,17.77
2023-01-30T18:38:54.557Z,12.90
2023-01-30T18:41:23.316Z,11.20
2023-01-30T18:43:57.258Z,15.20
2023-01-30T18:46:24.711Z,13.00
2023-01-30T18:48:51.900Z,10.43
2023-01-30T18:51:23.038Z,12.37
2023-01-30T18:53:51.039Z,15.57
2023-01-30T18:56:19.893Z,13.20
2023-01-30T18:58:49.716Z,11.97
2023-01-30T19:01:18.164Z,20.03
2023-01-30T19:03:45.506Z,11.17
2023-01-30T19:06:14.187Z,14.30
2023-01-30T19:08:41.833Z,9.80
2023-01-30T19:11:29.195Z,15.17
2023-01-30T19:13:56.828Z,16.20
2023-01-30T19:16:24.750Z,12.40
2023-01-30T19:18:52.204Z,17.93
2023-01-30T19:21:19.471Z,16.80
2023-01-30T19:23:46.633Z,15.67
2023-01-30T19:26:14.098Z,14.37
2023-01-30T19:28:41.806Z,17.07
2023-01-30T19:31:09.923Z,19.40
2023-01-30T19:33:37.272Z,14.90
2023-01-30T19:36:15.733Z,15.13
2023-01-30T19:38:43.714Z,19.13
2023-01-30T19:41:11.908Z,14.53
2023-01-30T19:43:39.505Z,19.60
2023-01-30T19:46:07.657Z,14.57
2023-01-30T19:48:35.025Z,15.57
2023-01-30T19:51:10.165Z,17.50
2023-01-30T19:53:37.400Z,17.43
2023-01-30T19:56:05.187Z,16.47
2023-01-30T19:58:32.368Z,21.20
2023-01-30T20:01:06.662Z,17.13
2023-01-30T20:03:33.804Z,16.17
2023-01-30T20:06:20.804Z,13.63
2023-01-30T20:08:50.207Z,14.63
2023-01-30T20:11:18.936Z,15.50
2023-01-30T20:13:46.652Z,15.87
2023-01-30T20:16:15.028Z,14.37
2023-01-30T20:18:42.619Z,19.67
2023-01-30T20:21:10.806Z,16.47
2023-01-30T20:23:38.709Z,16.90
2023-01-30T20:26:07.353Z,13.83
2023-01-30T20:28:35.057Z,12.80
2023-01-30T20:31:07.457Z,15.27
2023-01-30T20:33:34.709Z,14.90
2023-01-30T20:36:02.579Z,19.90
2023-01-30T20:38:33.583Z,15.87
2023-01-30T20:41:14.963Z,15.80
2023-01-30T20:43:44.944Z,12.53
2023-01-30T20:46:19.580Z,15.13
2023-01-30T20:48:46.791Z,15.97
2023-01-30T20:51:15.116Z,14.17
2023-01-30T20:53:47.001Z,18.23
2023-01-30T20:56:14.158Z,17.10
2023-01-30T20:58:41.314Z,15.63
2023-01-30T21:01:11.974Z,25.07
2023-01-30T21:03:39.642Z,18.93
2023-01-30T21:06:06.826Z,15.50
2023-01-30T21:08:34.502Z,22.17
2023-01-30T21:11:09.203Z,19.00
2023-01-30T21:13:37.069Z,16.97
2023-01-30T21:16:06.013Z,14.00
2023-01-30T21:18:34.161Z,17.67
2023-01-30T21:21:01.657Z,14.90
2023-01-30T21:23:29.372Z,24.20
2023-01-30T21:25:57.487Z,18.57
2023-01-30T21:28:24.662Z,19.23
2023-01-30T21:30:51.857Z,17.10
2023-01-30T21:33:19.089Z,19.93
2023-01-30T21:35:46.289Z,16.27
2023-01-30T21:38:31.916Z,23.97
2023-01-30T21:41:17.633Z,21.03
2023-01-30T21:43:48.491Z,21.53
2023-01-30T21:46:16.892Z,20.63
2023-01-30T21:48:44.132Z,17.40
2023-01-30T21:51:12.017Z,23.23
2023-01-30T21:53:39.154Z,16.97
2023-01-30T21:56:06.507Z,17.97
2023-01-30T21:58:34.318Z,16.67
2023-01-30T22:01:05.820Z,24.23
2023-01-30T22:03:33.546Z,14.37
2023-01-30T22:06:00.932Z,12.50
2023-01-30T22:08:28.619Z,18.27
2023-01-30T22:11:05.806Z,17.70
2023-01-30T22:13:37.524Z,15.13
2023-01-30T22:16:05.934Z,18.67
2023-01-30T22:18:33.535Z,19.57
2023-01-30T22:21:04.714Z,18.30
2023-01-30T22:23:32.981Z,16.90
2023-01-30T22:26:00.378Z,12.30
2023-01-30T22:28:27.833Z,13.87
2023-01-30T22:31:11.450Z,20.27
2023-01-30T22:33:39.412Z,14.30
2023-01-30T22:36:07.969Z,17.47
2023-01-30T22:38:36.135Z,24.40
2023-01-30T22:41:04.838Z,16.90
2023-01-30T22:43:31.996Z,19.13
2023-01-30T22:46:02.911Z,14.63
2023-01-30T22:48:30.333Z,23.70
2023-01-30T22:51:06.608Z,15.70
2023-01-30T22:53:38.380Z,15.90
2023-01-30T22:56:07.112Z,22.17
2023-01-30T22:58:34.823Z,21.43
2023-01-30T23:01:28.276Z,21.73
2023-01-30T23:03:56.741Z,19.27
2023-01-30T23:06:24.158Z,17.07
2023-01-30T23:08:51.940Z,20.73
2023-01-30T23:11:22.022Z,17.73
2023-01-30T23:13:50.191Z,22.70
2023-01-30T23:16:18.231Z,22.20
2023-01-30T23:18:58.780Z,17.87
2023-01-30T23:21:27.853Z,15.40
2023-01-30T23:23:56.296Z,18.40
2023-01-30T23:26:24.577Z,17.23
2023-01-30T23:28:51.775Z,21.30
2023-01-30T23:31:20.754Z,19.77
2023-01-30T23:33:48.438Z,20.17
2023-01-30T23:36:16.031Z,17.97
2023-01-30T23:38:43.169Z,19.43
2023-01-30T23:41:14.283Z,20.23
2023-01-30T23:43:42.494Z,19.07
2023-01-30T23:46:15.819Z,16.37
2023-01-30T23:48:44.520Z,20.33
2023-01-30T23:51:11.689Z,22.63
2023-01-30T23:53:39.051Z,18.47
2023-01-30T23:56:06.750Z,13.07
2023-01-30T23:58:33.990Z,18.50
